Estación Meteorológica Peña el Pijo (Robertgarden) [ 02/02/23 20:00:04 CET ]

Fecha Hora Presion(HPa) Temp (°C) Humedad % Rocio (°C) Viento ( m/s) Direccion Lluvia 1Hora(mm) Lluvia 24H(mm) LLuvia Total(mm)
2012-Nov-05 01:01:16 1004.300 11.4 88 9.5         178.19
2012-Nov-05 02:03:17 1004.400 11.2 90 9.6         178.19
2012-Nov-05 03:01:16 1005.100 10.8 91 9.4         178.19
2012-Nov-05 04:01:17 1005.000 9.9 90 8.3         178.19
2012-Nov-05 05:01:17 1005.500 9.7 90 8.1         178.19
2012-Nov-05 06:01:12 1005.900 8.9 89 7.2         178.19
2012-Nov-05 07:01:16 1006.500 8.2 86 6.0         178.19
2012-Nov-05 08:01:14 1006.900 8.1 85 5.7         178.19
2012-Nov-05 09:01:14 1008.200 9.8 81 6.7         178.19
2012-Nov-05 10:01:12 1008.700 10.9 70 5.7         178.19
2012-Nov-05 11:01:16 1009.200 11.9 63 5.1         178.19
2012-Nov-05 12:01:17 1009.100 13.6 58 5.5         178.19
2012-Nov-05 13:01:16 1008.500 15.9 50 5.5         178.19
2012-Nov-05 14:01:14 1007.900 16.3 50 5.9         178.19
2012-Nov-05 15:01:12 1007.700 15.6 50 5.2         178.19
2012-Nov-05 16:01:14 1008.300 13.9 58 5.8         178.19
2012-Nov-05 17:01:11 1008.200 12.3 63 5.4         178.19
2012-Nov-05 18:01:13 1008.400 11.4 67 5.5         178.19
2012-Nov-05 19:01:17 1009.100 10.5 69 5.1         178.19
2012-Nov-05 20:01:13 1009.500 9.6 71 4.6         178.19
2012-Nov-05 21:01:13 1009.600 8.8 72 4.0         178.19
2012-Nov-05 22:01:14 1009.800 8.3 72 3.5         178.19
2012-Nov-05 23:01:12 1010.000 7.9 75 3.8         178.19

Temperatura Máxima:16°    Temperatura Mínima:
Presión Máxima:1010.000 Hpa    Presión Mínima:1004.300 Hpa


Volver